sensor_id;sensor_type;location;lat;lon;timestamp;P1;durP1;ratioP1;P2;durP2;ratioP2
74170;SDS011;62526;50.948;6.590;2023-07-29T00:00:10;3.75;;;2.22;;
74170;SDS011;62526;50.948;6.590;2023-07-29T00:02:38;4.07;;;1.87;;
74170;SDS011;62526;50.948;6.590;2023-07-29T00:05:04;2.45;;;2.12;;
74170;SDS011;62526;50.948;6.590;2023-07-29T00:07:31;4.85;;;1.85;;
74170;SDS011;62526;50.948;6.590;2023-07-29T00:09:58;5.22;;;1.92;;
74170;SDS011;62526;50.948;6.590;2023-07-29T00:12:24;3.17;;;1.80;;
74170;SDS011;62526;50.948;6.590;2023-07-29T00:14:51;2.37;;;1.90;;
74170;SDS011;62526;50.948;6.590;2023-07-29T00:17:18;2.20;;;2.00;;
74170;SDS011;62526;50.948;6.590;2023-07-29T00:19:44;4.18;;;2.00;;
74170;SDS011;62526;50.948;6.590;2023-07-29T00:22:11;4.03;;;1.90;;
74170;SDS011;62526;50.948;6.590;2023-07-29T00:24:39;2.50;;;2.10;;
74170;SDS011;62526;50.948;6.590;2023-07-29T00:27:05;4.10;;;1.85;;
74170;SDS011;62526;50.948;6.590;2023-07-29T00:29:32;4.93;;;2.17;;
74170;SDS011;62526;50.948;6.590;2023-07-29T00:31:58;2.78;;;2.15;;
74170;SDS011;62526;50.948;6.590;2023-07-29T00:34:25;2.20;;;2.00;;
74170;SDS011;62526;50.948;6.590;2023-07-29T00:36:52;2.72;;;2.00;;
74170;SDS011;62526;50.948;6.590;2023-07-29T00:39:18;1.87;;;1.67;;
74170;SDS011;62526;50.948;6.590;2023-07-29T00:41:45;4.78;;;2.05;;
74170;SDS011;62526;50.948;6.590;2023-07-29T00:44:12;2.67;;;2.20;;
74170;SDS011;62526;50.948;6.590;2023-07-29T00:46:38;1.92;;;1.83;;
74170;SDS011;62526;50.948;6.590;2023-07-29T00:49:05;3.78;;;2.00;;
74170;SDS011;62526;50.948;6.590;2023-07-29T00:51:32;3.72;;;1.90;;
74170;SDS011;62526;50.948;6.590;2023-07-29T00:53:58;2.00;;;1.90;;
74170;SDS011;62526;50.948;6.590;2023-07-29T00:56:26;4.15;;;2.00;;
74170;SDS011;62526;50.948;6.590;2023-07-29T00:58:52;8.60;;;2.30;;
74170;SDS011;62526;50.948;6.590;2023-07-29T01:01:19;4.03;;;2.15;;
74170;SDS011;62526;50.948;6.590;2023-07-29T01:03:46;2.10;;;1.90;;
74170;SDS011;62526;50.948;6.590;2023-07-29T01:06:49;3.53;;;2.25;;
74170;SDS011;62526;50.948;6.590;2023-07-29T01:08:59;2.30;;;2.08;;
74170;SDS011;62526;50.948;6.590;2023-07-29T01:11:41;5.35;;;2.25;;
74170;SDS011;62526;50.948;6.590;2023-07-29T01:14:26;3.37;;;1.98;;
74170;SDS011;62526;50.948;6.590;2023-07-29T01:16:52;11.02;;;2.50;;
74170;SDS011;62526;50.948;6.590;2023-07-29T01:19:26;3.00;;;1.85;;
74170;SDS011;62526;50.948;6.590;2023-07-29T01:21:52;3.62;;;2.12;;
74170;SDS011;62526;50.948;6.590;2023-07-29T01:24:19;4.75;;;2.12;;
74170;SDS011;62526;50.948;6.590;2023-07-29T01:26:45;4.50;;;2.45;;
74170;SDS011;62526;50.948;6.590;2023-07-29T01:29:12;7.22;;;2.70;;
74170;SDS011;62526;50.948;6.590;2023-07-29T01:31:40;2.62;;;1.98;;
74170;SDS011;62526;50.948;6.590;2023-07-29T01:34:10;3.67;;;2.10;;
74170;SDS011;62526;50.948;6.590;2023-07-29T01:36:36;7.37;;;2.10;;
74170;SDS011;62526;50.948;6.590;2023-07-29T01:39:03;5.87;;;2.28;;
74170;SDS011;62526;50.948;6.590;2023-07-29T01:41:30;4.95;;;1.90;;
74170;SDS011;62526;50.948;6.590;2023-07-29T01:43:57;4.68;;;2.33;;
74170;SDS011;62526;50.948;6.590;2023-07-29T01:46:23;5.45;;;2.22;;
74170;SDS011;62526;50.948;6.590;2023-07-29T01:48:50;7.30;;;2.30;;
74170;SDS011;62526;50.948;6.590;2023-07-29T01:51:17;4.30;;;2.10;;
74170;SDS011;62526;50.948;6.590;2023-07-29T01:53:43;11.05;;;2.25;;
74170;SDS011;62526;50.948;6.590;2023-07-29T01:56:10;4.03;;;2.67;;
74170;SDS011;62526;50.948;6.590;2023-07-29T01:58:37;2.80;;;2.10;;
74170;SDS011;62526;50.948;6.590;2023-07-29T02:01:03;9.30;;;2.30;;
74170;SDS011;62526;50.948;6.590;2023-07-29T02:03:30;3.80;;;2.05;;
74170;SDS011;62526;50.948;6.590;2023-07-29T02:05:57;3.05;;;2.40;;
74170;SDS011;62526;50.948;6.590;2023-07-29T02:08:23;4.25;;;2.12;;
74170;SDS011;62526;50.948;6.590;2023-07-29T02:10:50;6.62;;;2.70;;
74170;SDS011;62526;50.948;6.590;2023-07-29T02:13:16;7.00;;;2.28;;
74170;SDS011;62526;50.948;6.590;2023-07-29T02:15:43;2.50;;;2.22;;
74170;SDS011;62526;50.948;6.590;2023-07-29T02:18:10;6.30;;;2.72;;
74170;SDS011;62526;50.948;6.590;2023-07-29T02:20:36;3.12;;;2.30;;
74170;SDS011;62526;50.948;6.590;2023-07-29T02:23:03;3.70;;;2.25;;
74170;SDS011;62526;50.948;6.590;2023-07-29T02:25:30;4.93;;;2.37;;
74170;SDS011;62526;50.948;6.590;2023-07-29T02:27:57;7.20;;;2.42;;
74170;SDS011;62526;50.948;6.590;2023-07-29T02:30:24;5.25;;;2.47;;
74170;SDS011;62526;50.948;6.590;2023-07-29T02:32:51;7.03;;;2.60;;
74170;SDS011;62526;50.948;6.590;2023-07-29T02:35:18;4.12;;;2.62;;
74170;SDS011;62526;50.948;6.590;2023-07-29T02:37:44;6.62;;;2.35;;
74170;SDS011;62526;50.948;6.590;2023-07-29T02:40:11;2.22;;;1.65;;
74170;SDS011;62526;50.948;6.590;2023-07-29T02:42:38;4.32;;;1.62;;
74170;SDS011;62526;50.948;6.590;2023-07-29T02:45:05;2.40;;;1.80;;
74170;SDS011;62526;50.948;6.590;2023-07-29T02:47:32;3.70;;;1.90;;
74170;SDS011;62526;50.948;6.590;2023-07-29T02:49:59;3.08;;;1.85;;
74170;SDS011;62526;50.948;6.590;2023-07-29T02:52:25;3.03;;;1.75;;
74170;SDS011;62526;50.948;6.590;2023-07-29T02:54:52;4.43;;;2.45;;
74170;SDS011;62526;50.948;6.590;2023-07-29T02:57:18;6.72;;;1.90;;
74170;SDS011;62526;50.948;6.590;2023-07-29T02:59:46;6.70;;;1.85;;
74170;SDS011;62526;50.948;6.590;2023-07-29T03:02:13;2.78;;;1.80;;
74170;SDS011;62526;50.948;6.590;2023-07-29T03:04:39;3.72;;;2.28;;
74170;SDS011;62526;50.948;6.590;2023-07-29T03:07:06;3.83;;;1.77;;
74170;SDS011;62526;50.948;6.590;2023-07-29T03:09:33;3.95;;;2.03;;
74170;SDS011;62526;50.948;6.590;2023-07-29T03:11:59;6.22;;;2.10;;
74170;SDS011;62526;50.948;6.590;2023-07-29T03:14:26;4.30;;;1.77;;
74170;SDS011;62526;50.948;6.590;2023-07-29T03:16:53;3.62;;;1.67;;
74170;SDS011;62526;50.948;6.590;2023-07-29T03:19:19;5.20;;;2.12;;
74170;SDS011;62526;50.948;6.590;2023-07-29T03:21:46;5.50;;;1.90;;
74170;SDS011;62526;50.948;6.590;2023-07-29T03:24:12;3.55;;;1.90;;
74170;SDS011;62526;50.948;6.590;2023-07-29T03:26:39;4.07;;;2.03;;
74170;SDS011;62526;50.948;6.590;2023-07-29T03:29:06;5.80;;;2.25;;
74170;SDS011;62526;50.948;6.590;2023-07-29T03:31:32;3.08;;;2.00;;
74170;SDS011;62526;50.948;6.590;2023-07-29T03:33:59;1.83;;;1.73;;
74170;SDS011;62526;50.948;6.590;2023-07-29T03:36:26;3.50;;;1.90;;
74170;SDS011;62526;50.948;6.590;2023-07-29T03:38:52;6.47;;;2.25;;
74170;SDS011;62526;50.948;6.590;2023-07-29T03:41:19;4.72;;;1.75;;
74170;SDS011;62526;50.948;6.590;2023-07-29T03:43:46;7.85;;;2.65;;
74170;SDS011;62526;50.948;6.590;2023-07-29T03:46:12;4.65;;;2.50;;
74170;SDS011;62526;50.948;6.590;2023-07-29T03:48:39;10.15;;;3.10;;
74170;SDS011;62526;50.948;6.590;2023-07-29T03:51:06;5.95;;;2.78;;
74170;SDS011;62526;50.948;6.590;2023-07-29T03:53:32;9.98;;;2.60;;
74170;SDS011;62526;50.948;6.590;2023-07-29T03:55:59;8.82;;;2.60;;
74170;SDS011;62526;50.948;6.590;2023-07-29T03:58:26;3.80;;;2.53;;
74170;SDS011;62526;50.948;6.590;2023-07-29T04:00:52;6.15;;;2.53;;
74170;SDS011;62526;50.948;6.590;2023-07-29T04:03:19;6.37;;;2.70;;
74170;SDS011;62526;50.948;6.590;2023-07-29T04:05:46;2.65;;;2.45;;
74170;SDS011;62526;50.948;6.590;2023-07-29T04:08:13;3.30;;;2.60;;
74170;SDS011;62526;50.948;6.590;2023-07-29T04:10:40;7.37;;;2.97;;
74170;SDS011;62526;50.948;6.590;2023-07-29T04:13:06;8.05;;;2.42;;
74170;SDS011;62526;50.948;6.590;2023-07-29T04:15:34;15.88;;;2.65;;
74170;SDS011;62526;50.948;6.590;2023-07-29T04:18:00;9.30;;;2.97;;
74170;SDS011;62526;50.948;6.590;2023-07-29T04:20:27;4.75;;;2.87;;
74170;SDS011;62526;50.948;6.590;2023-07-29T04:22:54;6.43;;;2.60;;
74170;SDS011;62526;50.948;6.590;2023-07-29T04:25:20;5.18;;;2.80;;
74170;SDS011;62526;50.948;6.590;2023-07-29T04:27:47;8.27;;;3.00;;
74170;SDS011;62526;50.948;6.590;2023-07-29T04:30:14;10.82;;;2.97;;
74170;SDS011;62526;50.948;6.590;2023-07-29T04:32:41;12.85;;;2.85;;
74170;SDS011;62526;50.948;6.590;2023-07-29T04:35:08;9.85;;;3.17;;
74170;SDS011;62526;50.948;6.590;2023-07-29T04:37:34;9.98;;;2.92;;
74170;SDS011;62526;50.948;6.590;2023-07-29T04:40:01;4.32;;;2.55;;
74170;SDS011;62526;50.948;6.590;2023-07-29T04:42:28;8.20;;;2.87;;
74170;SDS011;62526;50.948;6.590;2023-07-29T04:44:54;14.87;;;2.83;;
74170;SDS011;62526;50.948;6.590;2023-07-29T04:47:21;8.35;;;3.00;;
74170;SDS011;62526;50.948;6.590;2023-07-29T04:49:48;7.57;;;3.05;;
74170;SDS011;62526;50.948;6.590;2023-07-29T04:52:14;7.22;;;3.25;;
74170;SDS011;62526;50.948;6.590;2023-07-29T04:54:41;6.20;;;2.87;;
74170;SDS011;62526;50.948;6.590;2023-07-29T04:57:08;4.97;;;2.92;;
74170;SDS011;62526;50.948;6.590;2023-07-29T04:59:34;5.80;;;3.20;;
74170;SDS011;62526;50.948;6.590;2023-07-29T05:02:01;5.93;;;2.83;;
74170;SDS011;62526;50.948;6.590;2023-07-29T05:04:28;6.32;;;2.55;;
74170;SDS011;62526;50.948;6.590;2023-07-29T05:06:54;6.35;;;2.80;;
74170;SDS011;62526;50.948;6.590;2023-07-29T05:09:21;9.20;;;2.83;;
74170;SDS011;62526;50.948;6.590;2023-07-29T05:11:48;5.82;;;2.90;;
74170;SDS011;62526;50.948;6.590;2023-07-29T05:14:15;11.77;;;2.85;;
74170;SDS011;62526;50.948;6.590;2023-07-29T05:16:42;5.60;;;2.85;;
74170;SDS011;62526;50.948;6.590;2023-07-29T05:19:08;2.97;;;2.67;;
74170;SDS011;62526;50.948;6.590;2023-07-29T05:21:35;3.75;;;2.65;;
74170;SDS011;62526;50.948;6.590;2023-07-29T05:24:02;4.85;;;2.03;;
74170;SDS011;62526;50.948;6.590;2023-07-29T05:26:29;2.58;;;2.30;;
74170;SDS011;62526;50.948;6.590;2023-07-29T05:28:56;3.35;;;2.42;;
74170;SDS011;62526;50.948;6.590;2023-07-29T05:31:23;3.70;;;2.22;;
74170;SDS011;62526;50.948;6.590;2023-07-29T05:33:50;4.53;;;2.40;;
74170;SDS011;62526;50.948;6.590;2023-07-29T05:36:16;5.12;;;2.65;;
74170;SDS011;62526;50.948;6.590;2023-07-29T05:38:43;4.80;;;2.25;;
74170;SDS011;62526;50.948;6.590;2023-07-29T05:41:10;5.12;;;2.20;;
74170;SDS011;62526;50.948;6.590;2023-07-29T05:43:36;3.80;;;2.53;;
74170;SDS011;62526;50.948;6.590;2023-07-29T05:46:03;2.58;;;2.20;;
74170;SDS011;62526;50.948;6.590;2023-07-29T05:48:30;5.18;;;2.28;;
74170;SDS011;62526;50.948;6.590;2023-07-29T05:50:57;2.37;;;2.00;;
74170;SDS011;62526;50.948;6.590;2023-07-29T05:53:29;4.32;;;1.80;;
74170;SDS011;62526;50.948;6.590;2023-07-29T05:55:56;3.45;;;2.22;;
74170;SDS011;62526;50.948;6.590;2023-07-29T05:58:23;3.47;;;2.28;;
74170;SDS011;62526;50.948;6.590;2023-07-29T06:00:49;1.65;;;1.45;;
74170;SDS011;62526;50.948;6.590;2023-07-29T06:03:16;7.57;;;1.98;;
74170;SDS011;62526;50.948;6.590;2023-07-29T06:05:43;3.78;;;1.98;;
74170;SDS011;62526;50.948;6.590;2023-07-29T06:08:09;2.22;;;2.03;;
74170;SDS011;62526;50.948;6.590;2023-07-29T06:10:36;3.00;;;1.83;;
74170;SDS011;62526;50.948;6.590;2023-07-29T06:13:03;5.70;;;2.12;;
74170;SDS011;62526;50.948;6.590;2023-07-29T06:15:29;3.62;;;2.20;;
74170;SDS011;62526;50.948;6.590;2023-07-29T06:17:56;4.78;;;2.00;;
74170;SDS011;62526;50.948;6.590;2023-07-29T06:20:22;4.55;;;2.05;;
74170;SDS011;62526;50.948;6.590;2023-07-29T06:22:49;3.75;;;2.45;;
74170;SDS011;62526;50.948;6.590;2023-07-29T06:25:16;4.87;;;2.30;;
74170;SDS011;62526;50.948;6.590;2023-07-29T06:27:43;8.98;;;2.22;;
74170;SDS011;62526;50.948;6.590;2023-07-29T06:30:09;3.65;;;2.65;;
74170;SDS011;62526;50.948;6.590;2023-07-29T06:32:36;5.78;;;2.20;;
74170;SDS011;62526;50.948;6.590;2023-07-29T06:37:58;7.70;;;2.30;;
74170;SDS011;62526;50.948;6.590;2023-07-29T06:40:25;6.45;;;2.22;;
74170;SDS011;62526;50.948;6.590;2023-07-29T06:42:52;3.40;;;2.42;;
74170;SDS011;62526;50.948;6.590;2023-07-29T06:45:18;2.92;;;2.12;;
74170;SDS011;62526;50.948;6.590;2023-07-29T06:47:45;3.87;;;2.03;;
74170;SDS011;62526;50.948;6.590;2023-07-29T06:50:11;6.55;;;2.47;;
74170;SDS011;62526;50.948;6.590;2023-07-29T06:52:38;4.18;;;2.35;;
74170;SDS011;62526;50.948;6.590;2023-07-29T06:55:05;2.03;;;1.80;;
74170;SDS011;62526;50.948;6.590;2023-07-29T06:57:32;3.53;;;1.85;;
74170;SDS011;62526;50.948;6.590;2023-07-29T06:59:58;3.80;;;2.30;;
74170;SDS011;62526;50.948;6.590;2023-07-29T07:02:25;5.20;;;1.92;;
74170;SDS011;62526;50.948;6.590;2023-07-29T07:04:51;5.68;;;2.10;;
74170;SDS011;62526;50.948;6.590;2023-07-29T07:07:19;3.33;;;1.90;;
74170;SDS011;62526;50.948;6.590;2023-07-29T07:09:46;6.03;;;2.40;;
74170;SDS011;62526;50.948;6.590;2023-07-29T07:12:12;2.37;;;2.12;;
74170;SDS011;62526;50.948;6.590;2023-07-29T07:14:39;3.80;;;2.62;;
74170;SDS011;62526;50.948;6.590;2023-07-29T07:17:05;3.80;;;1.65;;
74170;SDS011;62526;50.948;6.590;2023-07-29T07:19:32;3.08;;;1.90;;
74170;SDS011;62526;50.948;6.590;2023-07-29T07:21:59;3.95;;;2.20;;
74170;SDS011;62526;50.948;6.590;2023-07-29T07:24:25;1.95;;;1.75;;
74170;SDS011;62526;50.948;6.590;2023-07-29T07:26:52;2.65;;;1.80;;
74170;SDS011;62526;50.948;6.590;2023-07-29T07:29:18;2.83;;;1.70;;
74170;SDS011;62526;50.948;6.590;2023-07-29T07:31:51;7.15;;;1.95;;
74170;SDS011;62526;50.948;6.590;2023-07-29T07:34:18;3.03;;;1.90;;
74170;SDS011;62526;50.948;6.590;2023-07-29T07:36:45;2.42;;;1.62;;
74170;SDS011;62526;50.948;6.590;2023-07-29T07:39:11;3.25;;;1.90;;
74170;SDS011;62526;50.948;6.590;2023-07-29T07:41:39;4.28;;;1.92;;
74170;SDS011;62526;50.948;6.590;2023-07-29T07:44:09;1.70;;;1.60;;
74170;SDS011;62526;50.948;6.590;2023-07-29T07:46:36;1.85;;;1.50;;
74170;SDS011;62526;50.948;6.590;2023-07-29T07:49:02;2.92;;;1.73;;
74170;SDS011;62526;50.948;6.590;2023-07-29T07:51:32;4.15;;;1.62;;
74170;SDS011;62526;50.948;6.590;2023-07-29T07:54:00;5.53;;;1.65;;
74170;SDS011;62526;50.948;6.590;2023-07-29T07:56:27;1.70;;;1.60;;
74170;SDS011;62526;50.948;6.590;2023-07-29T07:58:54;2.22;;;2.00;;
74170;SDS011;62526;50.948;6.590;2023-07-29T08:01:21;4.70;;;1.50;;
74170;SDS011;62526;50.948;6.590;2023-07-29T08:03:48;1.20;;;1.10;;
74170;SDS011;62526;50.948;6.590;2023-07-29T08:06:14;2.25;;;1.73;;
74170;SDS011;62526;50.948;6.590;2023-07-29T08:08:41;4.20;;;1.60;;
74170;SDS011;62526;50.948;6.590;2023-07-29T08:11:08;1.60;;;1.27;;
74170;SDS011;62526;50.948;6.590;2023-07-29T08:13:34;2.85;;;1.35;;
74170;SDS011;62526;50.948;6.590;2023-07-29T08:16:01;2.53;;;1.25;;
74170;SDS011;62526;50.948;6.590;2023-07-29T08:18:28;2.22;;;1.62;;
74170;SDS011;62526;50.948;6.590;2023-07-29T08:20:56;3.08;;;1.60;;
74170;SDS011;62526;50.948;6.590;2023-07-29T08:23:25;1.52;;;1.42;;
74170;SDS011;62526;50.948;6.590;2023-07-29T08:25:52;2.80;;;1.70;;
74170;SDS011;62526;50.948;6.590;2023-07-29T08:28:19;5.32;;;1.40;;
74170;SDS011;62526;50.948;6.590;2023-07-29T08:30:46;2.50;;;1.48;;
74170;SDS011;62526;50.948;6.590;2023-07-29T08:33:13;4.07;;;1.75;;
74170;SDS011;62526;50.948;6.590;2023-07-29T08:35:39;5.68;;;1.58;;
74170;SDS011;62526;50.948;6.590;2023-07-29T08:38:06;1.48;;;1.37;;
74170;SDS011;62526;50.948;6.590;2023-07-29T08:40:34;1.90;;;1.33;;
74170;SDS011;62526;50.948;6.590;2023-07-29T08:43:02;1.37;;;1.27;;
74170;SDS011;62526;50.948;6.590;2023-07-29T08:45:27;1.73;;;1.40;;
74170;SDS011;62526;50.948;6.590;2023-07-29T08:47:54;1.85;;;1.40;;
74170;SDS011;62526;50.948;6.590;2023-07-29T08:50:20;2.47;;;1.58;;
74170;SDS011;62526;50.948;6.590;2023-07-29T08:52:47;2.70;;;1.50;;
74170;SDS011;62526;50.948;6.590;2023-07-29T08:55:15;2.60;;;1.65;;
74170;SDS011;62526;50.948;6.590;2023-07-29T08:57:41;1.83;;;1.40;;
74170;SDS011;62526;50.948;6.590;2023-07-29T09:00:08;3.95;;;1.60;;
74170;SDS011;62526;50.948;6.590;2023-07-29T09:02:35;2.70;;;1.50;;
74170;SDS011;62526;50.948;6.590;2023-07-29T09:05:02;2.22;;;1.40;;
74170;SDS011;62526;50.948;6.590;2023-07-29T09:07:29;1.65;;;1.40;;
74170;SDS011;62526;50.948;6.590;2023-07-29T09:09:55;1.55;;;1.20;;
74170;SDS011;62526;50.948;6.590;2023-07-29T09:12:22;1.30;;;1.20;;
74170;SDS011;62526;50.948;6.590;2023-07-29T09:14:51;1.55;;;1.45;;
74170;SDS011;62526;50.948;6.590;2023-07-29T09:17:15;2.33;;;1.52;;
74170;SDS011;62526;50.948;6.590;2023-07-29T09:19:42;3.17;;;1.60;;
74170;SDS011;62526;50.948;6.590;2023-07-29T09:22:16;1.37;;;1.27;;
74170;SDS011;62526;50.948;6.590;2023-07-29T09:24:36;3.37;;;1.52;;
74170;SDS011;62526;50.948;6.590;2023-07-29T09:27:03;2.30;;;1.37;;
74170;SDS011;62526;50.948;6.590;2023-07-29T09:29:29;1.40;;;1.20;;
74170;SDS011;62526;50.948;6.590;2023-07-29T09:32:16;1.50;;;1.40;;
74170;SDS011;62526;50.948;6.590;2023-07-29T09:34:23;2.55;;;1.30;;
74170;SDS011;62526;50.948;6.590;2023-07-29T09:36:50;4.22;;;1.52;;
74170;SDS011;62526;50.948;6.590;2023-07-29T09:39:16;1.52;;;1.23;;
74170;SDS011;62526;50.948;6.590;2023-07-29T09:41:46;1.55;;;1.20;;
74170;SDS011;62526;50.948;6.590;2023-07-29T09:44:10;1.40;;;1.30;;
74170;SDS011;62526;50.948;6.590;2023-07-29T09:46:36;2.12;;;1.42;;
74170;SDS011;62526;50.948;6.590;2023-07-29T09:49:03;2.15;;;1.60;;
74170;SDS011;62526;50.948;6.590;2023-07-29T09:51:30;1.67;;;1.10;;
74170;SDS011;62526;50.948;6.590;2023-07-29T09:53:56;2.17;;;1.37;;
74170;SDS011;62526;50.948;6.590;2023-07-29T09:56:25;1.50;;;1.30;;
74170;SDS011;62526;50.948;6.590;2023-07-29T09:58:51;3.12;;;1.85;;
74170;SDS011;62526;50.948;6.590;2023-07-29T10:01:18;1.65;;;1.42;;
74170;SDS011;62526;50.948;6.590;2023-07-29T10:03:44;1.73;;;1.62;;
74170;SDS011;62526;50.948;6.590;2023-07-29T10:06:11;1.73;;;1.37;;
74170;SDS011;62526;50.948;6.590;2023-07-29T10:08:38;1.92;;;1.67;;
74170;SDS011;62526;50.948;6.590;2023-07-29T10:11:05;1.37;;;1.20;;
74170;SDS011;62526;50.948;6.590;2023-07-29T10:13:31;3.87;;;1.42;;
74170;SDS011;62526;50.948;6.590;2023-07-29T10:15:58;1.83;;;1.40;;
74170;SDS011;62526;50.948;6.590;2023-07-29T10:18:25;2.78;;;1.50;;
74170;SDS011;62526;50.948;6.590;2023-07-29T10:20:51;2.35;;;1.65;;
74170;SDS011;62526;50.948;6.590;2023-07-29T10:23:19;2.97;;;1.65;;
74170;SDS011;62526;50.948;6.590;2023-07-29T10:25:47;6.15;;;1.65;;
74170;SDS011;62526;50.948;6.590;2023-07-29T10:28:13;2.53;;;1.70;;
74170;SDS011;62526;50.948;6.590;2023-07-29T10:30:40;2.87;;;1.77;;
74170;SDS011;62526;50.948;6.590;2023-07-29T10:33:06;4.10;;;1.80;;
74170;SDS011;62526;50.948;6.590;2023-07-29T10:35:33;2.47;;;1.98;;
74170;SDS011;62526;50.948;6.590;2023-07-29T10:38:00;6.37;;;2.00;;
74170;SDS011;62526;50.948;6.590;2023-07-29T10:40:26;2.00;;;1.48;;
74170;SDS011;62526;50.948;6.590;2023-07-29T10:43:01;4.00;;;1.67;;
74170;SDS011;62526;50.948;6.590;2023-07-29T10:45:27;4.28;;;1.80;;
74170;SDS011;62526;50.948;6.590;2023-07-29T10:47:53;2.50;;;1.70;;
74170;SDS011;62526;50.948;6.590;2023-07-29T10:50:21;2.40;;;1.90;;
74170;SDS011;62526;50.948;6.590;2023-07-29T10:52:49;5.53;;;2.20;;
74170;SDS011;62526;50.948;6.590;2023-07-29T10:57:48;4.00;;;1.87;;
74170;SDS011;62526;50.948;6.590;2023-07-29T11:00:15;3.67;;;1.77;;
74170;SDS011;62526;50.948;6.590;2023-07-29T11:02:41;4.50;;;1.90;;
74170;SDS011;62526;50.948;6.590;2023-07-29T11:07:45;4.93;;;1.80;;
74170;SDS011;62526;50.948;6.590;2023-07-29T11:10:11;2.75;;;1.60;;
74170;SDS011;62526;50.948;6.590;2023-07-29T11:15:14;4.70;;;1.83;;
74170;SDS011;62526;50.948;6.590;2023-07-29T11:17:41;1.65;;;1.50;;
74170;SDS011;62526;50.948;6.590;2023-07-29T11:20:10;3.45;;;1.60;;
74170;SDS011;62526;50.948;6.590;2023-07-29T11:22:37;2.10;;;1.60;;
74170;SDS011;62526;50.948;6.590;2023-07-29T11:25:03;2.70;;;1.75;;
74170;SDS011;62526;50.948;6.590;2023-07-29T11:27:31;3.83;;;1.52;;
74170;SDS011;62526;50.948;6.590;2023-07-29T11:29:59;1.92;;;1.30;;
74170;SDS011;62526;50.948;6.590;2023-07-29T11:32:26;1.60;;;1.50;;
74170;SDS011;62526;50.948;6.590;2023-07-29T11:34:52;1.70;;;1.60;;
74170;SDS011;62526;50.948;6.590;2023-07-29T11:37:18;1.40;;;1.30;;
74170;SDS011;62526;50.948;6.590;2023-07-29T11:39:45;1.48;;;1.35;;
74170;SDS011;62526;50.948;6.590;2023-07-29T11:42:12;2.83;;;1.80;;
74170;SDS011;62526;50.948;6.590;2023-07-29T11:44:39;1.50;;;1.40;;
74170;SDS011;62526;50.948;6.590;2023-07-29T11:47:07;1.48;;;1.37;;
74170;SDS011;62526;50.948;6.590;2023-07-29T11:49:35;1.85;;;1.55;;
74170;SDS011;62526;50.948;6.590;2023-07-29T11:52:02;3.87;;;1.60;;
74170;SDS011;62526;50.948;6.590;2023-07-29T11:54:29;1.60;;;1.50;;
74170;SDS011;62526;50.948;6.590;2023-07-29T11:56:56;1.98;;;1.50;;
74170;SDS011;62526;50.948;6.590;2023-07-29T11:59:23;1.67;;;1.50;;
74170;SDS011;62526;50.948;6.590;2023-07-29T12:01:50;1.65;;;1.55;;
74170;SDS011;62526;50.948;6.590;2023-07-29T12:04:16;4.47;;;2.03;;
74170;SDS011;62526;50.948;6.590;2023-07-29T12:06:43;1.80;;;1.70;;
74170;SDS011;62526;50.948;6.590;2023-07-29T12:09:10;1.62;;;1.52;;
74170;SDS011;62526;50.948;6.590;2023-07-29T12:11:38;2.50;;;1.60;;
74170;SDS011;62526;50.948;6.590;2023-07-29T12:14:08;5.05;;;1.90;;
74170;SDS011;62526;50.948;6.590;2023-07-29T12:16:40;2.85;;;1.90;;
74170;SDS011;62526;50.948;6.590;2023-07-29T12:19:06;2.62;;;1.87;;
74170;SDS011;62526;50.948;6.590;2023-07-29T12:21:33;1.80;;;1.70;;
74170;SDS011;62526;50.948;6.590;2023-07-29T12:24:02;1.90;;;1.70;;
74170;SDS011;62526;50.948;6.590;2023-07-29T12:26:29;3.45;;;1.50;;
74170;SDS011;62526;50.948;6.590;2023-07-29T12:28:56;1.70;;;1.60;;
74170;SDS011;62526;50.948;6.590;2023-07-29T12:31:30;2.40;;;1.87;;
74170;SDS011;62526;50.948;6.590;2023-07-29T12:34:04;2.05;;;1.73;;
74170;SDS011;62526;50.948;6.590;2023-07-29T12:41:41;3.35;;;1.70;;
74170;SDS011;62526;50.948;6.590;2023-07-29T12:44:08;2.10;;;1.60;;
74170;SDS011;62526;50.948;6.590;2023-07-29T12:46:36;2.05;;;1.60;;
74170;SDS011;62526;50.948;6.590;2023-07-29T12:49:03;1.75;;;1.65;;
74170;SDS011;62526;50.948;6.590;2023-07-29T12:51:31;2.80;;;1.70;;
74170;SDS011;62526;50.948;6.590;2023-07-29T12:53:58;2.22;;;1.70;;
74170;SDS011;62526;50.948;6.590;2023-07-29T12:56:25;4.03;;;1.77;;
74170;SDS011;62526;50.948;6.590;2023-07-29T12:58:53;2.92;;;1.73;;
74170;SDS011;62526;50.948;6.590;2023-07-29T13:01:21;2.83;;;1.98;;
74170;SDS011;62526;50.948;6.590;2023-07-29T13:03:48;1.90;;;1.70;;
74170;SDS011;62526;50.948;6.590;2023-07-29T13:06:15;1.87;;;1.70;;
74170;SDS011;62526;50.948;6.590;2023-07-29T13:08:42;2.58;;;1.70;;
74170;SDS011;62526;50.948;6.590;2023-07-29T13:11:08;2.33;;;1.80;;
74170;SDS011;62526;50.948;6.590;2023-07-29T13:13:35;3.03;;;1.92;;
74170;SDS011;62526;50.948;6.590;2023-07-29T13:16:02;2.42;;;1.80;;
74170;SDS011;62526;50.948;6.590;2023-07-29T13:18:28;3.35;;;1.90;;
74170;SDS011;62526;50.948;6.590;2023-07-29T13:20:55;3.35;;;1.80;;
74170;SDS011;62526;50.948;6.590;2023-07-29T13:23:22;2.45;;;1.73;;
74170;SDS011;62526;50.948;6.590;2023-07-29T13:25:48;2.72;;;1.95;;
74170;SDS011;62526;50.948;6.590;2023-07-29T13:28:15;4.40;;;1.95;;
74170;SDS011;62526;50.948;6.590;2023-07-29T13:30:42;3.78;;;1.92;;
74170;SDS011;62526;50.948;6.590;2023-07-29T13:33:08;2.03;;;1.67;;
74170;SDS011;62526;50.948;6.590;2023-07-29T13:35:35;4.35;;;2.15;;
74170;SDS011;62526;50.948;6.590;2023-07-29T13:38:02;7.65;;;2.08;;
74170;SDS011;62526;50.948;6.590;2023-07-29T13:40:28;5.45;;;2.22;;
74170;SDS011;62526;50.948;6.590;2023-07-29T13:42:55;3.40;;;2.03;;
74170;SDS011;62526;50.948;6.590;2023-07-29T13:45:22;2.17;;;1.90;;
74170;SDS011;62526;50.948;6.590;2023-07-29T13:47:49;2.40;;;2.20;;
74170;SDS011;62526;50.948;6.590;2023-07-29T13:50:16;3.33;;;1.92;;
74170;SDS011;62526;50.948;6.590;2023-07-29T13:52:42;3.33;;;2.00;;
74170;SDS011;62526;50.948;6.590;2023-07-29T13:55:09;2.17;;;1.92;;
74170;SDS011;62526;50.948;6.590;2023-07-29T13:57:36;3.37;;;2.08;;
74170;SDS011;62526;50.948;6.590;2023-07-29T14:00:03;2.45;;;1.87;;
74170;SDS011;62526;50.948;6.590;2023-07-29T14:02:30;3.00;;;2.30;;
74170;SDS011;62526;50.948;6.590;2023-07-29T14:04:57;8.13;;;2.10;;
74170;SDS011;62526;50.948;6.590;2023-07-29T14:07:24;4.85;;;2.10;;
74170;SDS011;62526;50.948;6.590;2023-07-29T14:09:51;3.05;;;1.95;;
74170;SDS011;62526;50.948;6.590;2023-07-29T14:12:18;2.70;;;2.12;;
74170;SDS011;62526;50.948;6.590;2023-07-29T14:14:45;2.40;;;1.92;;
74170;SDS011;62526;50.948;6.590;2023-07-29T14:17:12;5.28;;;2.20;;
74170;SDS011;62526;50.948;6.590;2023-07-29T14:19:38;4.70;;;2.37;;
74170;SDS011;62526;50.948;6.590;2023-07-29T14:22:05;3.10;;;1.98;;
74170;SDS011;62526;50.948;6.590;2023-07-29T14:24:32;7.05;;;2.45;;
74170;SDS011;62526;50.948;6.590;2023-07-29T14:26:58;3.60;;;1.87;;
74170;SDS011;62526;50.948;6.590;2023-07-29T14:29:26;1.98;;;1.83;;
74170;SDS011;62526;50.948;6.590;2023-07-29T14:31:52;5.90;;;2.42;;
74170;SDS011;62526;50.948;6.590;2023-07-29T14:34:19;3.97;;;2.37;;
74170;SDS011;62526;50.948;6.590;2023-07-29T14:36:46;4.47;;;2.08;;
74170;SDS011;62526;50.948;6.590;2023-07-29T14:39:12;3.87;;;2.22;;
74170;SDS011;62526;50.948;6.590;2023-07-29T14:41:39;4.12;;;2.33;;
74170;SDS011;62526;50.948;6.590;2023-07-29T14:44:06;3.92;;;2.62;;
74170;SDS011;62526;50.948;6.590;2023-07-29T14:46:33;2.97;;;2.12;;
74170;SDS011;62526;50.948;6.590;2023-07-29T14:48:59;4.87;;;2.22;;
74170;SDS011;62526;50.948;6.590;2023-07-29T14:51:26;3.03;;;2.65;;
74170;SDS011;62526;50.948;6.590;2023-07-29T14:53:53;2.83;;;2.37;;
74170;SDS011;62526;50.948;6.590;2023-07-29T14:56:19;4.57;;;2.37;;
74170;SDS011;62526;50.948;6.590;2023-07-29T14:58:46;5.22;;;2.53;;
74170;SDS011;62526;50.948;6.590;2023-07-29T15:01:13;3.22;;;2.30;;